Time;durP1;ratioP1;P1;durP2;ratioP2;P2;SDS_P1;SDS_P2;PMS_P1;PMS_P2;Temp;Humidity;BMP_temperature;BMP_pressure;BME280_temperature;BME280_humidity;BME280_pressure;Samples;Min_cycle;Max_cycle;Signal;HPM_P1;HPM_P2
2022/12/26 00:00:28;;;;;;;16.60;9.18;;;13.20;99.90;;;;;;5029957;28;20250;-78
2022/12/26 00:02:56;;;;;;;15.55;9.10;;;13.30;99.90;;;;;;5030243;28;20045;-75
2022/12/26 00:05:22;;;;;;;15.32;8.38;;;13.20;99.90;;;;;;5011861;28;20033;-71
2022/12/26 00:07:48;;;;;;;20.30;9.47;;;13.30;99.90;;;;;;5010724;28;20030;-75
2022/12/26 00:10:14;;;;;;;20.77;8.57;;;13.30;99.90;;;;;;5016714;28;20144;-74
2022/12/26 00:12:41;;;;;;;20.63;9.27;;;13.30;99.90;;;;;;5044174;28;20291;-78
2022/12/26 00:15:08;;;;;;;16.98;9.00;;;13.30;99.90;;;;;;5028362;28;20055;-75
2022/12/26 00:17:35;;;;;;;15.63;8.75;;;13.30;99.90;;;;;;5042265;28;20083;-77
2022/12/26 00:20:04;;;;;;;17.80;9.13;;;13.30;99.90;;;;;;5047946;28;20133;-76
2022/12/26 00:22:30;;;;;;;17.38;8.82;;;13.40;99.90;;;;;;5008637;28;20033;-75
2022/12/26 00:25:01;;;;;;;21.50;9.23;;;13.30;99.90;;;;;;5030074;28;20342;-77
2022/12/26 00:27:27;;;;;;;15.25;8.68;;;13.30;99.90;;;;;;5029308;28;20125;-77
2022/12/26 00:29:53;;;;;;;18.90;8.63;;;13.40;99.90;;;;;;5013394;28;20041;-76
2022/12/26 00:32:19;;;;;;;16.57;8.50;;;13.30;99.90;;;;;;5033576;28;20280;-77
2022/12/26 00:34:47;;;;;;;15.50;8.10;;;13.20;99.90;;;;;;5033516;28;20037;-76
2022/12/26 00:37:13;;;;;;;19.70;8.70;;;13.30;99.90;;;;;;5032280;28;20021;-77
2022/12/26 00:39:39;;;;;;;21.00;8.43;;;13.20;99.90;;;;;;5037827;28;20119;-74
2022/12/26 00:42:05;;;;;;;17.50;8.73;;;13.20;99.90;;;;;;5045671;28;20527;-75
2022/12/26 00:44:31;;;;;;;19.93;8.93;;;13.20;99.90;;;;;;5032479;28;20037;-76
2022/12/26 00:46:58;;;;;;;20.13;8.97;;;13.20;99.90;;;;;;5031479;28;20436;-74
2022/12/26 00:49:25;;;;;;;19.90;9.40;;;13.30;99.90;;;;;;5033029;28;20056;-75
2022/12/26 00:51:53;;;;;;;18.88;8.63;;;13.30;99.90;;;;;;5040934;28;20112;-77
2022/12/26 00:54:19;;;;;;;15.63;8.43;;;13.30;99.90;;;;;;5032361;28;20033;-76
2022/12/26 00:56:45;;;;;;;19.63;9.67;;;13.30;99.90;;;;;;5033268;28;20037;-77
2022/12/26 00:59:11;;;;;;;21.33;10.20;;;13.30;99.90;;;;;;5037363;28;20112;-76
2022/12/26 01:01:37;;;;;;;20.05;9.35;;;13.40;99.90;;;;;;5035008;28;20048;-77
2022/12/26 01:04:09;;;;;;;24.33;9.57;;;13.40;99.90;;;;;;5031955;28;20055;-76
2022/12/26 01:06:35;;;;;;;19.95;9.65;;;13.40;99.90;;;;;;5042523;28;20339;-74
2022/12/26 01:09:11;;;;;;;19.00;10.73;;;13.40;99.90;;;;;;5032807;28;20053;-72
2022/12/26 01:11:39;;;;;;;18.42;10.38;;;13.30;99.90;;;;;;5044184;28;20021;-75
2022/12/26 01:14:14;;;;;;;21.58;11.52;;;13.30;99.90;;;;;;5050563;28;20029;-75
2022/12/26 01:16:43;;;;;;;25.77;11.73;;;13.30;99.90;;;;;;5049491;28;20426;-78
2022/12/26 01:19:11;;;;;;;31.25;12.02;;;13.30;99.90;;;;;;5052491;28;20033;-75
2022/12/26 01:21:38;;;;;;;;;;;13.30;99.90;;;;;;5053293;28;20138;-77
2022/12/26 01:24:08;;;;;;;24.80;10.98;;;13.30;99.90;;;;;;5034308;28;20008;-77
2022/12/26 01:26:34;;;;;;;22.08;11.52;;;13.40;99.90;;;;;;5044398;28;20136;-78
2022/12/26 01:29:00;;;;;;;20.77;12.10;;;13.30;99.90;;;;;;5033243;28;20029;-76
2022/12/26 01:31:29;;;;;;;24.45;12.73;;;13.30;99.90;;;;;;5017155;28;20022;-77
2022/12/26 01:34:02;;;;;;;21.13;12.02;;;13.30;99.90;;;;;;5032368;28;20037;-78
2022/12/26 01:36:37;;;;;;;22.75;11.88;;;13.30;99.90;;;;;;5045644;28;20045;-77
2022/12/26 01:39:04;;;;;;;23.98;12.00;;;13.30;99.90;;;;;;5051964;28;20031;-77
2022/12/26 01:41:32;;;;;;;20.98;12.18;;;13.30;99.90;;;;;;5030846;28;20044;-77
2022/12/26 01:44:04;;;;;;;20.10;12.18;;;13.30;99.90;;;;;;5030987;28;20465;-77
2022/12/26 01:46:39;;;;;;;23.80;12.13;;;13.20;99.90;;;;;;5040500;28;20075;-77
2022/12/26 01:49:34;;;;;;;20.95;12.05;;;13.20;99.90;;;;;;5051871;28;20036;-79
2022/12/26 01:52:05;;;;;;;29.30;12.87;;;13.20;99.90;;;;;;5032999;28;20075;-78
2022/12/26 01:54:39;;;;;;;22.42;12.13;;;13.20;99.90;;;;;;5030740;28;20315;-78
2022/12/26 01:57:12;;;;;;;29.10;12.85;;;13.20;99.90;;;;;;5031051;28;20099;-79
2022/12/26 01:59:40;;;;;;;27.17;14.77;;;13.20;99.90;;;;;;5032093;28;20037;-77
2022/12/26 02:02:07;;;;;;;20.90;12.77;;;13.20;99.90;;;;;;5036399;28;20047;-78
2022/12/26 02:07:25;;;;;;;24.98;14.55;;;13.20;99.90;;;;;;5031816;28;20161;-79
2022/12/26 02:09:51;;;;;;;24.15;14.20;;;13.20;99.90;;;;;;5029867;28;20030;-75
2022/12/26 02:12:32;;;;;;;30.83;16.20;;;13.20;99.90;;;;;;5039007;28;20518;-77
2022/12/26 02:15:01;;;;;;;31.33;15.60;;;13.20;99.90;;;;;;5030898;28;20025;-79
2022/12/26 02:17:29;;;;;;;28.13;15.52;;;13.20;99.90;;;;;;5045394;28;20120;-78
2022/12/26 02:20:25;;;;;;;26.95;14.50;;;13.20;99.90;;;;;;5031740;28;20064;-79
2022/12/26 02:23:26;;;;;;;25.38;15.30;;;13.20;99.90;;;;;;5028872;28;20101;-76
2022/12/26 02:26:36;;;;;;;29.48;14.98;;;13.20;99.90;;;;;;5051200;28;20460;-79
2022/12/26 02:29:22;;;;;;;28.42;14.52;;;13.20;99.90;;;;;;5011881;28;20053;-78
2022/12/26 02:31:59;;;;;;;27.88;15.38;;;13.20;99.90;;;;;;5037517;28;20024;-78
2022/12/26 02:34:43;;;;;;;24.33;13.90;;;13.20;99.90;;;;;;5042845;28;20441;-77
2022/12/26 02:37:26;;;;;;;27.05;14.80;;;13.20;99.90;;;;;;5051582;28;20487;-76
2022/12/26 02:40:18;;;;;;;30.20;15.35;;;13.20;99.90;;;;;;5051165;28;20051;-76
2022/12/26 02:43:16;;;;;;;24.15;13.63;;;13.20;99.90;;;;;;5015969;28;20025;-76
2022/12/26 02:49:14;;;;;;;25.70;15.32;;;13.20;99.90;;;;;;5031144;28;20120;-76
2022/12/26 03:15:22;;;;;;;30.58;17.08;;;13.20;99.90;;;;;;5050809;28;20080;-76
2022/12/26 03:17:55;;;;;;;29.15;16.20;;;13.20;99.90;;;;;;5034716;28;20060;-77
2022/12/26 03:20:32;;;;;;;31.40;16.08;;;13.10;99.90;;;;;;5047078;28;20135;-76
2022/12/26 03:23:04;;;;;;;;;;;13.10;99.90;;;;;;5050847;28;20487;-76
2022/12/26 03:28:29;;;;;;;37.53;18.83;;;13.10;99.90;;;;;;5030363;28;20107;-77
2022/12/26 03:30:59;;;;;;;27.83;16.80;;;13.00;99.90;;;;;;5029141;28;20370;-76
2022/12/26 03:36:33;;;;;;;32.85;15.68;;;13.00;99.90;;;;;;5030654;28;20040;-76
2022/12/26 04:44:12;;;;;;;15.02;7.15;;;12.20;99.90;;;;;;4966459;28;20042;-78
2022/12/26 04:46:44;;;;;;;11.95;7.13;;;12.10;99.90;;;;;;4972344;28;20027;-75
2022/12/26 04:52:00;;;;;;;18.35;9.05;;;12.10;99.90;;;;;;4972550;28;20125;-75
2022/12/26 04:54:26;;;;;;;23.20;9.85;;;12.20;99.90;;;;;;4997287;28;20037;-78
2022/12/26 04:56:55;;;;;;;14.82;8.60;;;12.10;99.90;;;;;;5033296;28;20064;-78
2022/12/26 04:59:26;;;;;;;19.77;10.80;;;12.10;99.90;;;;;;5032126;28;20094;-78
2022/12/26 05:10:25;;;;;;;18.42;7.35;;;12.00;99.90;;;;;;5042609;28;20048;-78
2022/12/26 05:12:53;;;;;;;15.20;7.63;;;12.00;99.90;;;;;;5015664;28;20476;-79
2022/12/26 05:15:20;;;;;;;13.00;7.68;;;12.00;99.90;;;;;;5031941;28;20073;-79
2022/12/26 05:29:06;;;;;;;;;;;11.70;99.90;;;;;;5024962;28;20170;-80
2022/12/26 05:31:33;;;;;;;12.77;5.85;;;11.60;99.90;;;;;;5031866;28;19996;-78
2022/12/26 05:34:09;;;;;;;11.13;5.82;;;11.60;99.90;;;;;;5030032;28;20477;-79
2022/12/26 05:36:52;;;;;;;11.25;5.97;;;11.60;99.90;;;;;;5033381;28;20032;-78
2022/12/26 05:39:18;;;;;;;11.48;6.20;;;11.60;99.90;;;;;;5031425;28;20049;-78
2022/12/26 05:41:46;;;;;;;13.73;6.95;;;11.60;99.90;;;;;;5031134;28;20026;-80
2022/12/26 05:44:12;;;;;;;13.57;7.20;;;11.60;99.90;;;;;;5041863;28;20101;-80
2022/12/26 05:46:39;;;;;;;12.37;6.80;;;11.70;99.90;;;;;;5032296;28;20021;-79
2022/12/26 05:49:05;;;;;;;15.10;7.90;;;11.70;99.90;;;;;;5031965;28;20278;-79
2022/12/26 05:51:31;;;;;;;14.10;7.32;;;11.80;99.90;;;;;;5031037;28;20036;-75
2022/12/26 05:54:00;;;;;;;16.80;7.00;;;11.80;99.90;;;;;;5031867;28;20052;-75
2022/12/26 05:56:26;;;;;;;14.77;6.78;;;11.80;99.90;;;;;;5033313;28;20037;-76
2022/12/26 05:58:57;;;;;;;15.60;6.93;;;11.90;99.90;;;;;;5050830;28;20017;-77
2022/12/26 06:01:25;;;;;;;15.57;8.75;;;11.90;99.90;;;;;;5025774;28;20048;-75
2022/12/26 06:03:54;;;;;;;19.48;8.65;;;11.90;99.90;;;;;;5030648;28;20121;-78
2022/12/26 06:06:22;;;;;;;19.30;9.98;;;12.00;99.90;;;;;;5018460;28;20132;-77
2022/12/26 06:08:50;;;;;;;19.13;11.05;;;12.00;99.90;;;;;;5048281;28;20024;-76
2022/12/26 06:11:18;;;;;;;19.98;10.82;;;12.10;99.90;;;;;;5051153;28;20362;-76
2022/12/26 06:13:48;;;;;;;19.45;10.82;;;12.00;99.90;;;;;;5050998;28;20076;-79
2022/12/26 06:16:15;;;;;;;20.90;10.35;;;12.10;99.90;;;;;;5039589;28;20045;-74
2022/12/26 06:18:43;;;;;;;22.08;11.10;;;12.10;99.90;;;;;;5048031;28;20332;-79
2022/12/26 06:21:14;;;;;;;28.23;11.02;;;12.10;99.90;;;;;;5044656;28;20041;-77
2022/12/26 06:23:41;;;;;;;19.77;11.27;;;12.10;99.90;;;;;;5039215;28;20135;-79
2022/12/26 06:26:11;;;;;;;24.00;11.73;;;12.10;99.90;;;;;;5036023;28;20025;-79
2022/12/26 06:28:39;;;;;;;28.27;12.63;;;12.20;99.90;;;;;;5035617;28;20033;-78
2022/12/26 06:31:13;;;;;;;25.85;13.45;;;12.20;99.90;;;;;;5037278;28;20093;-72
2022/12/26 06:33:39;;;;;;;25.60;12.73;;;12.20;99.90;;;;;;5030223;28;20044;-75
2022/12/26 06:36:08;;;;;;;23.50;13.40;;;12.30;99.90;;;;;;5032797;28;20385;-76
2022/12/26 06:38:36;;;;;;;31.58;13.68;;;12.30;99.90;;;;;;5031833;28;20109;-77
2022/12/26 06:41:05;;;;;;;32.63;15.35;;;12.40;99.90;;;;;;5031491;28;20036;-77
2022/12/26 06:43:31;;;;;;;31.92;14.80;;;12.50;99.90;;;;;;5031490;28;20025;-77
2022/12/26 06:46:00;;;;;;;31.48;14.13;;;12.50;99.90;;;;;;5031205;28;20059;-73
2022/12/26 06:48:27;;;;;;;35.45;14.77;;;12.60;99.90;;;;;;5031539;28;20032;-69
2022/12/26 06:50:53;;;;;;;42.20;15.70;;;12.60;99.90;;;;;;5031131;28;20017;-70
2022/12/26 06:53:22;;;;;;;31.88;13.88;;;12.50;99.90;;;;;;5030896;28;20080;-71
2022/12/26 06:55:48;;;;;;;32.13;14.43;;;12.60;99.90;;;;;;5030992;28;20021;-71
2022/12/26 06:58:15;;;;;;;34.40;14.00;;;12.60;99.90;;;;;;5031274;28;20033;-70
2022/12/26 07:00:45;;;;;;;25.05;14.07;;;12.60;99.90;;;;;;5031426;28;20503;-73
2022/12/26 07:03:12;;;;;;;28.23;13.95;;;12.60;99.90;;;;;;5031397;28;20021;-75
2022/12/26 07:05:42;;;;;;;27.17;14.43;;;12.70;99.90;;;;;;5030328;28;20538;-70
2022/12/26 07:08:08;;;;;;;21.98;12.57;;;12.80;99.90;;;;;;5030522;28;20026;-70
2022/12/26 07:10:38;;;;;;;21.35;12.82;;;12.90;99.90;;;;;;5030699;28;20448;-77
2022/12/26 07:13:06;;;;;;;25.67;14.02;;;13.00;99.90;;;;;;5030551;28;20112;-76
2022/12/26 07:15:32;;;;;;;20.98;12.32;;;13.10;99.90;;;;;;5030346;28;20030;-73
2022/12/26 07:17:59;;;;;;;22.05;12.35;;;13.20;99.90;;;;;;5030446;28;20186;-73
2022/12/26 07:20:25;;;;;;;20.73;12.07;;;13.30;99.90;;;;;;5030738;28;20457;-71
2022/12/26 07:22:52;;;;;;;21.75;12.98;;;13.50;99.90;;;;;;5031075;28;20017;-75
2022/12/26 07:25:19;;;;;;;27.55;12.82;;;13.50;99.90;;;;;;5030537;28;20133;-73
2022/12/26 07:27:45;;;;;;;29.48;12.35;;;13.50;99.90;;;;;;5039535;28;20033;-79
2022/12/26 07:30:20;;;;;;;49.63;12.18;;;13.50;99.90;;;;;;5027592;28;20033;-80
2022/12/26 07:32:46;;;;;;;21.77;12.13;;;13.40;99.90;;;;;;5021827;28;20171;-71
2022/12/26 07:35:13;;;;;;;25.45;13.15;;;13.40;99.90;;;;;;5029612;28;20347;-69
2022/12/26 07:37:42;;;;;;;21.20;12.77;;;13.50;99.90;;;;;;5030402;28;20493;-72
2022/12/26 07:40:13;;;;;;;22.17;12.88;;;13.50;99.90;;;;;;5032071;28;20047;-75
2022/12/26 07:42:47;;;;;;;21.52;12.23;;;13.70;99.90;;;;;;5033549;28;20034;-72
2022/12/26 07:45:22;;;;;;;28.98;13.48;;;13.80;99.90;;;;;;5034703;28;20458;-72
2022/12/26 07:47:56;;;;;;;24.48;13.82;;;14.00;99.90;;;;;;5033507;28;20080;-69
2022/12/26 07:50:24;;;;;;;21.23;12.35;;;14.00;99.90;;;;;;4997496;28;20560;-72
2022/12/26 07:52:52;;;;;;;24.38;12.43;;;14.30;99.90;;;;;;5024441;28;20026;-71
2022/12/26 07:55:20;;;;;;;25.13;13.10;;;14.60;99.90;;;;;;5034699;28;20516;-74
2022/12/26 07:57:53;;;;;;;22.20;12.00;;;14.70;99.90;;;;;;5032561;28;20045;-76
2022/12/26 08:00:25;;;;;;;23.02;12.60;;;15.00;99.90;;;;;;5033888;28;20427;-75
2022/12/26 08:03:19;;;;;;;22.88;13.35;;;15.10;99.90;;;;;;5025078;28;20334;-79
2022/12/26 08:08:29;;;;;;;21.83;12.90;;;15.70;99.90;;;;;;5019416;22;20067;-76
2022/12/26 08:14:11;;;;;;;24.98;13.25;;;16.30;99.90;;;;;;5050102;23;20049;-83
2022/12/26 08:19:16;;;;;;;22.25;13.13;;;16.30;99.90;;;;;;5064610;23;20104;-81
2022/12/26 08:21:53;;;;;;;19.27;12.35;;;16.40;99.90;;;;;;4997242;28;20025;-75
2022/12/26 08:24:20;;;;;;;;;;;16.30;99.90;;;;;;4997355;28;20029;-78
2022/12/26 08:26:49;;;;;;;22.58;12.05;;;16.20;99.90;;;;;;5015080;23;20410;-76
2022/12/26 08:29:16;;;;;;;23.35;13.20;;;16.30;99.90;;;;;;5016447;28;20101;-77
2022/12/26 08:32:03;;;;;;;24.08;12.32;;;16.50;99.90;;;;;;5009093;28;20101;-76
2022/12/26 08:34:34;;;;;;;22.42;12.60;;;16.60;99.90;;;;;;5009992;28;20470;-78
2022/12/26 08:37:05;;;;;;;21.38;12.98;;;16.60;99.90;;;;;;5009573;28;20022;-78
2022/12/26 08:39:30;;;;;;;20.67;12.77;;;16.80;99.90;;;;;;5007787;28;20080;-78
2022/12/26 08:41:58;;;;;;;22.50;12.43;;;16.90;99.90;;;;;;5008001;28;20031;-77
2022/12/26 08:44:24;;;;;;;20.80;12.25;;;16.90;99.90;;;;;;4993006;28;20096;-77
2022/12/26 08:46:53;;;;;;;22.80;12.95;;;17.10;99.90;;;;;;5003883;28;20038;-75
2022/12/26 08:49:20;;;;;;;18.85;12.20;;;17.10;99.90;;;;;;4994499;28;20029;-80
2022/12/26 08:51:47;;;;;;;20.35;12.25;;;17.20;99.90;;;;;;5013278;28;20063;-78
2022/12/26 08:54:13;;;;;;;19.27;11.15;;;17.30;99.90;;;;;;5013033;28;20116;-79
2022/12/26 08:57:26;;;;;;;19.70;11.40;;;17.40;99.90;;;;;;5013778;28;20080;-81
2022/12/26 08:59:52;;;;;;;19.73;12.57;;;17.40;99.90;;;;;;4969591;28;20158;-75
2022/12/26 09:02:18;;;;;;;22.77;14.77;;;17.40;99.90;;;;;;4971867;28;20356;-72
2022/12/26 09:04:44;;;;;;;27.15;16.92;;;17.40;99.90;;;;;;4970833;28;20135;-75
2022/12/26 09:07:13;;;;;;;26.65;16.48;;;17.30;99.90;;;;;;4967850;28;20103;-80
2022/12/26 09:09:39;;;;;;;27.27;15.57;;;17.00;99.90;;;;;;4969896;28;20058;-85
2022/12/26 09:12:05;;;;;;;26.77;16.00;;;17.10;99.90;;;;;;4956405;28;20086;-76
2022/12/26 09:14:31;;;;;;;26.45;16.73;;;17.30;99.90;;;;;;4965802;28;20271;-77
2022/12/26 09:16:57;;;;;;;27.15;16.67;;;17.30;99.90;;;;;;4967966;28;20061;-75
2022/12/26 09:19:31;;;;;;;27.73;16.90;;;17.20;99.90;;;;;;4968013;28;20490;-76
2022/12/26 09:24:42;;;;;;;23.77;15.55;;;17.10;99.90;;;;;;4972258;28;20078;-74
2022/12/26 09:27:09;;;;;;;21.13;14.18;;;17.20;99.90;;;;;;4968927;28;20090;-73
2022/12/26 09:29:37;;;;;;;;;;;17.20;99.90;;;;;;4953022;29;20035;-74
2022/12/26 09:32:04;;;;;;;20.25;13.90;;;17.30;99.90;;;;;;4952986;29;19906;-77
2022/12/26 09:34:31;;;;;;;20.02;13.23;;;17.30;99.90;;;;;;4953234;29;20407;-75
2022/12/26 09:37:04;;;;;;;20.25;12.52;;;17.20;99.90;;;;;;4985377;28;20038;-79
2022/12/26 09:39:30;;;;;;;22.95;12.77;;;17.30;99.90;;;;;;4993781;28;20466;-79
2022/12/26 09:42:08;;;;;;;18.75;13.13;;;17.40;99.90;;;;;;5006784;28;20037;-78
2022/12/26 09:45:08;;;;;;;18.35;11.20;;;17.50;99.90;;;;;;5012727;28;20064;-78
2022/12/26 09:47:58;;;;;;;20.63;12.02;;;17.60;99.90;;;;;;5001888;28;20186;-77
2022/12/26 09:50:28;;;;;;;16.25;10.73;;;17.50;99.90;;;;;;4993500;28;20049;-78
2022/12/26 09:53:09;;;;;;;;;;;17.70;99.90;;;;;;4992328;28;20069;-78
2022/12/26 09:55:41;;;;;;;15.00;9.70;;;17.70;99.90;;;;;;4993225;28;20051;-75
2022/12/26 09:58:50;;;;;;;15.82;9.32;;;17.70;99.90;;;;;;4999173;28;20026;-77
2022/12/26 10:01:23;;;;;;;14.52;9.48;;;17.70;99.90;;;;;;5010809;28;20061;-77
2022/12/26 10:03:58;;;;;;;13.68;8.20;;;17.80;99.90;;;;;;5012499;28;20030;-78
2022/12/26 10:06:50;;;;;;;15.48;8.48;;;17.80;99.90;;;;;;5013062;28;20034;-78
2022/12/26 10:09:24;;;;;;;13.00;7.95;;;17.90;99.90;;;;;;4998157;28;20436;-78
2022/12/26 10:12:03;;;;;;;12.90;8.00;;;18.00;99.90;;;;;;4993309;28;20363;-77
2022/12/26 10:15:00;;;;;;;12.45;8.27;;;18.00;99.90;;;;;;4993187;28;20026;-76
2022/12/26 10:17:58;;;;;;;13.00;8.25;;;17.90;99.90;;;;;;4993233;28;20100;-77
2022/12/26 10:21:06;;;;;;;12.07;7.88;;;17.80;99.90;;;;;;4993262;28;20034;-77
2022/12/26 10:23:48;;;;;;;12.90;7.68;;;18.10;99.90;;;;;;4993726;28;20026;-77
2022/12/26 10:26:36;;;;;;;11.90;8.00;;;18.30;99.90;;;;;;4992918;28;20109;-78
2022/12/26 10:29:08;;;;;;;14.30;7.93;;;18.50;99.90;;;;;;4992331;28;20034;-77
2022/12/26 10:31:46;;;;;;;14.15;8.45;;;18.70;99.90;;;;;;4992800;28;20084;-78
2022/12/26 10:34:40;;;;;;;13.10;7.35;;;18.90;99.90;;;;;;4993284;28;20023;-77
2022/12/26 10:37:31;;;;;;;15.00;7.82;;;19.10;99.90;;;;;;4993141;28;20109;-74
2022/12/26 10:40:23;;;;;;;14.20;7.28;;;19.00;99.90;;;;;;4992456;28;20034;-77
2022/12/26 10:42:53;;;;;;;14.45;7.30;;;19.10;99.90;;;;;;4992920;28;20029;-78
2022/12/26 10:45:40;;;;;;;12.70;8.40;;;19.10;99.90;;;;;;4992686;28;20058;-76
2022/12/26 10:48:13;;;;;;;11.50;6.78;;;19.20;99.90;;;;;;4997100;28;20105;-76
2022/12/26 10:50:46;;;;;;;14.48;7.65;;;19.40;99.90;;;;;;4991613;28;20050;-78
2022/12/26 10:53:16;;;;;;;13.70;7.68;;;19.60;99.90;;;;;;5009089;28;20066;-79
2022/12/26 10:55:43;;;;;;;13.65;7.70;;;19.60;99.90;;;;;;5011115;28;20018;-78
2022/12/26 10:58:20;;;;;;;15.45;8.35;;;19.70;99.90;;;;;;5005985;28;20071;-77
2022/12/26 11:00:46;;;;;;;13.77;7.65;;;19.50;99.90;;;;;;5011340;28;20042;-76
2022/12/26 11:03:15;;;;;;;15.63;7.93;;;19.40;99.90;;;;;;5006687;28;20042;-76
2022/12/26 11:05:56;;;;;;;18.55;8.27;;;19.50;99.90;;;;;;5008556;28;20022;-79
2022/12/26 11:08:35;;;;;;;14.57;7.43;;;19.70;99.90;;;;;;5005424;28;20021;-79
2022/12/26 11:11:44;;;;;;;13.95;7.70;;;19.90;99.90;;;;;;5012839;28;20108;-78
2022/12/26 11:14:27;;;;;;;13.70;6.65;;;20.00;99.90;;;;;;4999896;28;20065;-78
2022/12/26 11:16:54;;;;;;;13.40;7.50;;;20.20;99.90;;;;;;5003097;28;20121;-75
2022/12/26 11:19:28;;;;;;;11.75;6.95;;;20.00;99.90;;;;;;4984624;28;20049;-79
2022/12/26 11:22:12;;;;;;;14.68;7.88;;;20.00;99.90;;;;;;5010946;28;20042;-79
2022/12/26 11:24:41;;;;;;;15.35;7.85;;;20.10;99.90;;;;;;5010380;28;20034;-83
2022/12/26 11:27:19;;;;;;;11.60;7.10;;;20.20;99.90;;;;;;5011286;28;20050;-79
2022/12/26 11:29:45;;;;;;;15.00;8.10;;;20.30;99.90;;;;;;4979495;28;20042;-78
2022/12/26 11:32:19;;;;;;;22.02;7.88;;;20.30;99.90;;;;;;4992402;28;20032;-79
2022/12/26 11:34:48;;;;;;;12.80;6.97;;;20.40;99.90;;;;;;5007582;28;20076;-78
2022/12/26 11:40:36;;;;;;;16.25;8.00;;;20.10;99.90;;;;;;5031275;23;20058;-82
2022/12/26 11:43:12;;;;;;;15.35;7.95;;;19.90;99.90;;;;;;5014604;23;20062;-77
2022/12/26 11:46:01;;;;;;;13.25;7.43;;;19.80;99.90;;;;;;4993659;28;20033;-77
2022/12/26 11:48:29;;;;;;;16.45;7.80;;;19.90;99.90;;;;;;5011217;28;20022;-71
2022/12/26 11:50:56;;;;;;;16.63;8.07;;;19.80;99.90;;;;;;5011374;28;20511;-86
2022/12/26 11:53:23;;;;;;;15.27;7.55;;;19.90;99.90;;;;;;4992846;28;20042;-78
2022/12/26 11:56:01;;;;;;;14.75;7.60;;;19.80;99.90;;;;;;5009874;28;20486;-79
2022/12/26 11:58:32;;;;;;;11.07;7.57;;;19.70;99.90;;;;;;5006949;28;20068;-77
2022/12/26 12:01:15;;;;;;;15.05;7.60;;;19.80;99.90;;;;;;5011397;28;20049;-77
2022/12/26 12:03:52;;;;;;;15.30;8.05;;;19.90;99.90;;;;;;4992200;28;20046;-72
2022/12/26 12:06:27;;;;;;;;;;;19.70;99.90;;;;;;4996996;28;20026;-67
2022/12/26 12:09:08;;;;;;;12.90;6.80;;;19.80;99.90;;;;;;5011099;28;20288;-71
2022/12/26 12:12:03;;;;;;;18.35;8.15;;;19.80;99.90;;;;;;5010321;28;20137;-71
2022/12/26 12:15:08;;;;;;;15.07;6.97;;;19.70;99.90;;;;;;5010282;28;20034;-71
2022/12/26 12:17:54;;;;;;;11.45;7.03;;;19.80;99.90;;;;;;5001439;28;20320;-71
2022/12/26 12:20:39;;;;;;;11.60;6.00;;;19.80;99.90;;;;;;5009525;28;20093;-72
2022/12/26 12:23:23;;;;;;;12.90;7.30;;;19.80;99.90;;;;;;4992412;28;20112;-71
2022/12/26 12:26:11;;;;;;;15.02;6.50;;;19.80;99.90;;;;;;5012872;28;20049;-70
2022/12/26 12:28:54;;;;;;;13.43;6.97;;;19.80;99.90;;;;;;5011226;28;20041;-69
2022/12/26 12:31:32;;;;;;;11.75;6.30;;;19.60;99.90;;;;;;5013221;28;20029;-71
2022/12/26 12:34:30;;;;;;;14.18;6.28;;;19.50;99.90;;;;;;5013817;28;20030;-72
2022/12/26 12:37:10;;;;;;;11.50;5.55;;;19.40;99.90;;;;;;5007212;28;20053;-72
2022/12/26 12:39:42;;;;;;;12.40;7.05;;;19.60;99.90;;;;;;5014489;28;20080;-73
2022/12/26 12:42:15;;;;;;;10.93;6.43;;;19.50;99.90;;;;;;5014226;28;20026;-73
2022/12/26 12:45:00;;;;;;;11.57;6.95;;;19.50;99.90;;;;;;5014547;28;20101;-71
2022/12/26 12:47:56;;;;;;;11.73;6.10;;;19.50;99.90;;;;;;5008539;28;20105;-72
2022/12/26 12:50:50;;;;;;;11.32;6.15;;;19.60;99.90;;;;;;4996850;28;20038;-73
2022/12/26 12:53:54;;;;;;;11.98;6.00;;;19.60;99.90;;;;;;5001878;28;20030;-73
2022/12/26 12:56:59;;;;;;;13.83;6.37;;;19.50;99.90;;;;;;5011089;28;20214;-71
2022/12/26 12:59:50;;;;;;;11.52;5.30;;;19.60;99.90;;;;;;5011726;28;20095;-73
2022/12/26 13:02:25;;;;;;;10.50;5.03;;;19.50;99.90;;;;;;5008968;28;20034;-74
2022/12/26 13:05:14;;;;;;;11.95;5.40;;;19.40;99.90;;;;;;5013590;28;20125;-75
2022/12/26 13:07:47;;;;;;;10.13;4.43;;;19.30;99.90;;;;;;5003731;28;20026;-72
2022/12/26 13:10:24;;;;;;;10.80;5.65;;;19.30;99.90;;;;;;4993127;28;20026;-71
2022/12/26 13:12:52;;;;;;;10.48;6.22;;;19.30;99.90;;;;;;5006246;28;20386;-72
2022/12/26 13:15:39;;;;;;;11.00;5.20;;;19.40;99.90;;;;;;5015172;28;20118;-71
2022/12/26 13:18:19;;;;;;;15.43;5.57;;;19.40;99.90;;;;;;5020545;23;20062;-76
2022/12/26 13:20:56;;;;;;;10.88;5.40;;;19.50;99.90;;;;;;5012258;28;20033;-76
2022/12/26 13:30:15;;;;;;;17.88;5.88;;;19.40;99.90;;;;;;4959628;28;20125;-72
2022/12/26 13:32:43;;;;;;;10.82;5.78;;;19.50;99.90;;;;;;4965117;28;20031;-74
2022/12/26 13:35:47;;;;;;;8.60;5.43;;;19.60;99.90;;;;;;4970564;28;20070;-73
2022/12/26 13:39:06;;;;;;;9.52;5.40;;;19.70;99.90;;;;;;4969673;28;20026;-72
2022/12/26 13:44:20;;;;;;;15.57;6.07;;;19.80;99.90;;;;;;4969280;28;20502;-73
2022/12/26 13:46:49;;;;;;;11.75;6.47;;;19.90;99.90;;;;;;4971024;28;20501;-73
2022/12/26 13:49:39;;;;;;;11.40;5.40;;;19.80;99.90;;;;;;4971363;28;20107;-75
2022/12/26 13:52:18;;;;;;;11.20;5.40;;;19.90;99.90;;;;;;4954729;28;20118;-71
2022/12/26 13:54:47;;;;;;;9.98;5.22;;;19.70;99.90;;;;;;4971238;28;20035;-69
2022/12/26 13:57:42;;;;;;;12.88;6.03;;;19.60;99.90;;;;;;4969200;28;20059;-73
2022/12/26 14:00:40;;;;;;;12.88;6.32;;;19.70;99.90;;;;;;4971153;28;20030;-72
2022/12/26 14:03:44;;;;;;;13.43;5.55;;;19.60;99.90;;;;;;4992995;28;20153;-71
2022/12/26 14:06:40;;;;;;;11.45;5.93;;;19.70;99.90;;;;;;5000231;28;20133;-72
2022/12/26 14:09:15;;;;;;;;;;;19.50;99.90;;;;;;4992085;28;20038;-75
2022/12/26 14:12:03;;;;;;;11.30;6.03;;;19.50;99.90;;;;;;4987551;28;19929;-76
2022/12/26 14:15:02;;;;;;;12.88;6.03;;;19.50;99.90;;;;;;4992324;28;20030;-75
2022/12/26 14:17:49;;;;;;;13.85;6.05;;;19.50;99.90;;;;;;4997381;28;20042;-76
2022/12/26 14:20:48;;;;;;;13.25;5.47;;;19.50;99.90;;;;;;5011764;28;20030;-75
2022/12/26 14:23:37;;;;;;;15.73;6.80;;;19.60;99.90;;;;;;5013071;28;20054;-74
2022/12/26 14:26:20;;;;;;;14.55;5.30;;;19.50;99.90;;;;;;5011803;28;20040;-75
2022/12/26 14:31:59;;;;;;;11.43;5.30;;;19.30;99.90;;;;;;4672376;26;20156;-78
2022/12/26 14:34:47;;;;;;;13.18;6.28;;;19.30;99.90;;;;;;5027447;28;20188;-76
2022/12/26 14:37:53;;;;;;;13.15;6.05;;;19.20;99.90;;;;;;5031224;28;20056;-76
2022/12/26 14:40:37;;;;;;;14.30;6.18;;;19.20;99.90;;;;;;5032020;28;20046;-75
2022/12/26 14:43:30;;;;;;;13.32;6.50;;;19.20;99.90;;;;;;5032301;28;20028;-75
2022/12/26 14:46:26;;;;;;;11.23;5.88;;;19.20;99.90;;;;;;5032245;28;20033;-75
2022/12/26 14:49:15;;;;;;;12.23;6.60;;;19.10;99.90;;;;;;5030402;28;20047;-76
2022/12/26 14:51:42;;;;;;;13.68;7.75;;;19.10;99.90;;;;;;5030097;28;20030;-74
2022/12/26 14:54:21;;;;;;;17.60;8.20;;;18.90;99.90;;;;;;5044373;28;20443;-74
2022/12/26 14:57:38;;;;;;;16.10;7.90;;;18.90;99.90;;;;;;5047583;28;20029;-74
2022/12/26 15:00:23;;;;;;;15.15;7.35;;;18.80;99.90;;;;;;5016752;28;20389;-73
2022/12/26 15:03:00;;;;;;;14.75;8.40;;;18.70;99.90;;;;;;5030917;28;20048;-75
2022/12/26 15:05:36;;;;;;;13.02;7.43;;;18.70;99.90;;;;;;5029787;28;20032;-78
2022/12/26 15:10:53;;;;;;;15.90;8.65;;;18.60;99.90;;;;;;5029621;28;20057;-74
2022/12/26 15:13:57;;;;;;;13.95;7.20;;;18.60;99.90;;;;;;5031004;28;20519;-74
2022/12/26 15:16:35;;;;;;;17.95;7.75;;;18.50;99.90;;;;;;5012745;28;20061;-76
2022/12/26 15:19:35;;;;;;;13.52;6.85;;;18.50;99.90;;;;;;5013265;28;20037;-77
2022/12/26 15:22:30;;;;;;;14.02;7.20;;;18.40;99.90;;;;;;5012268;28;20049;-79
2022/12/26 15:25:15;;;;;;;15.43;7.30;;;18.30;99.90;;;;;;5002619;28;20133;-76
2022/12/26 15:28:35;;;;;;;14.48;7.53;;;18.20;99.90;;;;;;5007393;28;20029;-75
2022/12/26 15:31:25;;;;;;;16.15;9.50;;;18.10;99.90;;;;;;4950081;29;20098;-76
2022/12/26 15:34:33;;;;;;;18.02;9.20;;;18.00;99.90;;;;;;5014270;28;20346;-74
2022/12/26 15:37:36;;;;;;;17.02;10.05;;;17.90;99.90;;;;;;4956229;28;20078;-72
2022/12/26 15:40:14;;;;;;;13.98;7.88;;;17.80;99.90;;;;;;4931962;29;20043;-75
2022/12/26 15:42:44;;;;;;;16.35;9.98;;;17.70;99.90;;;;;;4938527;29;20039;-73
2022/12/26 15:45:35;;;;;;;20.55;10.57;;;17.60;99.90;;;;;;4950570;29;20039;-74
2022/12/26 15:48:09;;;;;;;16.33;8.00;;;17.50;99.90;;;;;;4949351;29;20028;-73
2022/12/26 15:50:57;;;;;;;36.33;22.15;;;17.40;99.90;;;;;;4948752;29;20079;-75
2022/12/26 15:54:00;;;;;;;17.63;9.63;;;17.30;99.90;;;;;;4949518;29;20027;-73